createdAt,value
2023-02-19T00:01:11.001Z,91.75
2023-02-19T00:03:49.210Z,91.92
2023-02-19T00:06:16.849Z,91.47
2023-02-19T00:08:44.705Z,91.26
2023-02-19T00:11:16.105Z,91.16
2023-02-19T00:13:45.900Z,91.01
2023-02-19T00:16:16.347Z,90.79
2023-02-19T00:18:44.497Z,90.85
2023-02-19T00:21:12.775Z,90.69
2023-02-19T00:23:40.519Z,90.61
2023-02-19T00:26:18.055Z,90.23
2023-02-19T00:28:47.539Z,90.16
2023-02-19T00:31:17.289Z,89.97
2023-02-19T00:33:47.096Z,89.83
2023-02-19T00:36:15.649Z,89.71
2023-02-19T00:38:44.537Z,89.72
2023-02-19T00:41:13.949Z,89.98
2023-02-19T00:43:41.523Z,90.07
2023-02-19T00:46:09.130Z,90.13
2023-02-19T00:48:36.760Z,90.37
2023-02-19T00:51:04.480Z,90.67
2023-02-19T00:53:32.074Z,91.04
2023-02-19T00:55:59.632Z,91.17
2023-02-19T00:58:27.228Z,91.30
2023-02-19T01:00:54.841Z,92.14
2023-02-19T01:03:22.495Z,92.39
2023-02-19T01:05:51.173Z,92.71
2023-02-19T01:08:19.085Z,92.75
2023-02-19T01:10:47.474Z,92.43
2023-02-19T01:13:15.292Z,92.10
2023-02-19T01:15:43.513Z,91.80
2023-02-19T01:18:11.942Z,91.67
2023-02-19T01:20:41.841Z,91.70
2023-02-19T01:23:11.572Z,91.86
2023-02-19T01:25:40.603Z,92.17
2023-02-19T01:28:09.130Z,92.62
2023-02-19T01:30:38.355Z,92.85
2023-02-19T01:33:08.331Z,93.07
2023-02-19T01:35:39.257Z,93.21
2023-02-19T01:38:06.990Z,93.56
2023-02-19T01:40:35.080Z,94.14
2023-02-19T01:43:02.877Z,94.27
2023-02-19T01:45:32.759Z,94.32
2023-02-19T01:48:25.817Z,94.43
2023-02-19T01:51:03.590Z,94.59
2023-02-19T01:53:36.539Z,94.46
2023-02-19T01:56:07.068Z,94.80
2023-02-19T01:58:36.362Z,94.75
2023-02-19T02:01:07.209Z,94.44
2023-02-19T02:03:37.808Z,94.53
2023-02-19T02:06:13.139Z,94.65
2023-02-19T02:08:40.764Z,94.70
2023-02-19T02:11:09.035Z,94.74
2023-02-19T02:13:38.668Z,94.61
2023-02-19T02:16:12.465Z,94.46
2023-02-19T02:18:52.728Z,94.81
2023-02-19T02:21:57.361Z,94.98
2023-02-19T02:24:50.040Z,95.21
2023-02-19T02:27:36.300Z,95.09
2023-02-19T02:30:16.877Z,95.19
2023-02-19T02:33:03.180Z,95.32
2023-02-19T02:35:40.597Z,95.22
2023-02-19T02:38:12.124Z,95.23
2023-02-19T02:40:43.672Z,95.12
2023-02-19T02:43:12.226Z,95.13
2023-02-19T02:45:40.551Z,95.20
2023-02-19T02:48:23.235Z,95.24
2023-02-19T02:51:17.048Z,95.14
2023-02-19T02:53:51.673Z,95.11
2023-02-19T02:56:19.701Z,95.11
2023-02-19T02:58:50.248Z,95.17
2023-02-19T03:01:28.406Z,95.19
2023-02-19T03:04:05.204Z,95.10
2023-02-19T03:06:35.590Z,95.25
2023-02-19T03:09:19.709Z,95.37
2023-02-19T03:11:51.919Z,95.17
2023-02-19T03:14:31.177Z,95.15
2023-02-19T03:17:16.360Z,95.12
2023-02-19T03:19:49.074Z,95.06
2023-02-19T03:22:20.328Z,95.15
2023-02-19T03:24:55.946Z,95.18
2023-02-19T03:27:28.497Z,95.41
2023-02-19T03:30:01.270Z,95.20
2023-02-19T03:32:41.233Z,95.51
2023-02-19T03:35:14.667Z,95.57
2023-02-19T03:37:50.467Z,95.65
2023-02-19T03:40:18.324Z,95.77
2023-02-19T03:43:09.735Z,95.78
2023-02-19T03:45:49.161Z,95.88
2023-02-19T03:48:38.091Z,95.85
2023-02-19T03:51:11.868Z,95.73
2023-02-19T03:54:03.757Z,95.76
2023-02-19T03:56:43.200Z,95.81
2023-02-19T03:59:17.660Z,95.87
2023-02-19T04:01:58.931Z,95.92
2023-02-19T04:04:38.099Z,95.77
2023-02-19T04:07:06.147Z,95.66
2023-02-19T04:09:37.474Z,95.74
2023-02-19T04:12:06.730Z,95.85
2023-02-19T04:14:58.149Z,95.85
2023-02-19T04:17:32.212Z,95.70
2023-02-19T04:20:03.049Z,95.82
2023-02-19T04:22:31.274Z,95.69
2023-02-19T04:24:58.931Z,95.79
2023-02-19T04:27:26.809Z,95.79
2023-02-19T04:29:54.504Z,95.80
2023-02-19T04:32:22.101Z,95.98
2023-02-19T04:34:49.707Z,96.12
2023-02-19T04:37:17.270Z,95.93
2023-02-19T04:39:44.837Z,95.76
2023-02-19T04:42:12.519Z,95.74
2023-02-19T04:44:40.226Z,95.76
2023-02-19T04:47:07.891Z,95.82
2023-02-19T04:49:35.601Z,95.69
2023-02-19T04:52:03.371Z,95.76
2023-02-19T04:54:30.962Z,95.64
2023-02-19T04:56:58.540Z,95.57
2023-02-19T04:59:26.247Z,95.88
2023-02-19T05:01:53.864Z,95.71
2023-02-19T05:04:21.504Z,95.73
2023-02-19T05:06:49.164Z,95.82
2023-02-19T05:09:16.774Z,95.84
2023-02-19T05:11:44.364Z,95.83
2023-02-19T05:14:11.964Z,95.98
2023-02-19T05:16:39.560Z,95.98
2023-02-19T05:19:07.212Z,96.05
2023-02-19T05:21:34.978Z,96.17
2023-02-19T05:24:02.661Z,96.16
2023-02-19T05:26:30.334Z,96.05
2023-02-19T05:28:59.263Z,96.22
2023-02-19T05:31:26.989Z,96.21
2023-02-19T05:33:57.472Z,96.27
2023-02-19T05:36:25.132Z,96.23
2023-02-19T05:38:54.975Z,96.35
2023-02-19T05:41:25.249Z,96.54
2023-02-19T05:43:53.083Z,96.43
2023-02-19T05:46:23.716Z,96.57
2023-02-19T05:48:53.091Z,96.69
2023-02-19T05:51:23.690Z,96.80
2023-02-19T05:53:51.752Z,96.75
2023-02-19T05:56:34.547Z,96.64
2023-02-19T05:59:05.597Z,96.54
2023-02-19T06:01:33.748Z,96.72
2023-02-19T06:04:01.537Z,96.89
2023-02-19T06:06:29.348Z,97.16
2023-02-19T06:08:57.400Z,97.36
2023-02-19T06:11:25.468Z,97.29
2023-02-19T06:13:53.078Z,97.35
2023-02-19T06:16:20.666Z,97.14
2023-02-19T06:18:49.207Z,96.85
2023-02-19T06:21:17.982Z,96.61
2023-02-19T06:23:46.116Z,96.44
2023-02-19T06:26:22.471Z,96.35
2023-02-19T06:28:52.199Z,96.04
2023-02-19T06:31:21.648Z,95.75
2023-02-19T06:33:49.426Z,95.61
2023-02-19T06:36:22.443Z,95.20
2023-02-19T06:38:50.720Z,94.96
2023-02-19T06:41:19.178Z,94.81
2023-02-19T06:43:46.920Z,94.54
2023-02-19T06:46:14.808Z,94.54
2023-02-19T06:48:44.680Z,94.24
2023-02-19T06:51:17.372Z,94.39
2023-02-19T06:53:46.233Z,94.37
2023-02-19T06:56:37.730Z,94.12
2023-02-19T06:59:08.474Z,94.23
2023-02-19T07:01:37.330Z,94.19
2023-02-19T07:04:05.671Z,94.35
2023-02-19T07:06:34.557Z,94.16
2023-02-19T07:09:03.519Z,94.16
2023-02-19T07:11:33.344Z,94.30
2023-02-19T07:14:03.965Z,94.37
2023-02-19T07:16:31.594Z,94.39
2023-02-19T07:19:01.061Z,94.48
2023-02-19T07:21:29.889Z,94.68
2023-02-19T07:23:57.887Z,94.73
2023-02-19T07:26:25.640Z,94.73
2023-02-19T07:28:53.644Z,94.81
2023-02-19T07:31:23.035Z,94.80
2023-02-19T07:33:51.286Z,94.77
2023-02-19T07:36:20.932Z,94.78
2023-02-19T07:38:56.996Z,94.71
2023-02-19T07:41:26.169Z,94.78
2023-02-19T07:43:54.074Z,94.82
2023-02-19T07:46:23.085Z,94.78
2023-02-19T07:48:50.821Z,94.89
2023-02-19T07:51:19.742Z,94.99
2023-02-19T07:53:49.220Z,94.85
2023-02-19T07:56:17.637Z,94.84
2023-02-19T07:58:45.751Z,94.91
2023-02-19T08:01:17.563Z,94.80
2023-02-19T08:03:45.677Z,94.79
2023-02-19T08:06:13.641Z,94.83
2023-02-19T08:08:41.231Z,94.68
2023-02-19T08:11:10.528Z,94.50
2023-02-19T08:13:38.317Z,94.51
2023-02-19T08:16:18.709Z,94.49
2023-02-19T08:18:49.604Z,94.52
2023-02-19T08:21:17.256Z,94.63
2023-02-19T08:23:45.416Z,94.65
2023-02-19T08:26:13.321Z,94.79
2023-02-19T08:28:41.547Z,94.76
2023-02-19T08:31:11.781Z,94.65
2023-02-19T08:33:40.274Z,94.68
2023-02-19T08:36:09.478Z,94.70
2023-02-19T08:38:37.289Z,94.54
2023-02-19T08:41:07.064Z,94.81
2023-02-19T08:43:35.335Z,94.76
2023-02-19T08:46:04.192Z,94.71
2023-02-19T08:48:31.786Z,94.74
2023-02-19T08:51:05.794Z,94.68
2023-02-19T08:53:34.230Z,94.88
2023-02-19T08:56:13.593Z,94.52
2023-02-19T08:58:41.618Z,94.33
2023-02-19T09:01:11.113Z,93.98
2023-02-19T09:03:39.268Z,93.89
2023-02-19T09:06:07.395Z,93.93
2023-02-19T09:08:35.130Z,94.08
2023-02-19T09:11:04.681Z,94.22
2023-02-19T09:13:32.673Z,94.36
2023-02-19T09:16:00.401Z,94.27
2023-02-19T09:18:28.048Z,94.34
2023-02-19T09:20:59.262Z,94.43
2023-02-19T09:23:27.023Z,94.24
2023-02-19T09:25:59.277Z,94.31
2023-02-19T09:28:27.849Z,94.24
2023-02-19T09:30:55.549Z,94.13
2023-02-19T09:33:23.306Z,94.38
2023-02-19T09:35:50.987Z,94.30
2023-02-19T09:38:18.637Z,94.32
2023-02-19T09:40:46.415Z,94.37
2023-02-19T09:43:18.722Z,94.44
2023-02-19T09:45:47.163Z,94.37
2023-02-19T09:48:14.755Z,94.40
2023-02-19T09:50:48.881Z,94.45
2023-02-19T09:53:24.529Z,94.33
2023-02-19T09:55:53.194Z,92.70
2023-02-19T09:58:41.734Z,91.82
2023-02-19T10:01:12.231Z,90.58
2023-02-19T10:03:43.934Z,91.21
2023-02-19T10:06:20.706Z,90.54
2023-02-19T10:08:49.988Z,90.23
2023-02-19T10:11:18.700Z,90.39
2023-02-19T10:13:57.617Z,90.82
2023-02-19T10:16:27.248Z,90.85
2023-02-19T10:18:55.146Z,90.72
2023-02-19T10:21:26.038Z,91.01
2023-02-19T10:23:58.720Z,91.33
2023-02-19T10:26:26.463Z,89.84
2023-02-19T10:28:54.462Z,89.58
2023-02-19T10:31:24.525Z,89.62
2023-02-19T10:34:01.174Z,90.07
2023-02-19T10:36:35.821Z,90.47
2023-02-19T10:39:27.526Z,90.36
2023-02-19T10:41:55.234Z,90.50
2023-02-19T10:44:26.851Z,90.66
2023-02-19T10:46:57.438Z,90.68
2023-02-19T10:49:37.217Z,90.36
2023-02-19T10:52:43.739Z,90.30
2023-02-19T10:55:24.802Z,90.10
2023-02-19T10:57:52.376Z,89.65
2023-02-19T11:00:24.623Z,89.71
2023-02-19T11:03:22.019Z,89.02
2023-02-19T11:05:59.984Z,87.86
2023-02-19T11:08:28.440Z,87.96
2023-02-19T11:10:56.289Z,87.76
2023-02-19T11:13:32.683Z,87.78
2023-02-19T11:16:00.436Z,87.75
2023-02-19T11:18:33.203Z,88.21
2023-02-19T11:21:04.647Z,88.12
2023-02-19T11:23:43.474Z,88.71
2023-02-19T11:26:20.802Z,88.69
2023-02-19T11:28:57.172Z,88.57
2023-02-19T11:31:32.815Z,88.39
2023-02-19T11:34:25.747Z,88.43
2023-02-19T11:37:10.247Z,88.63
2023-02-19T11:39:42.311Z,88.66
2023-02-19T11:42:52.523Z,88.72
2023-02-19T11:45:45.170Z,88.99
2023-02-19T11:48:34.576Z,88.92
2023-02-19T11:51:38.298Z,88.73
2023-02-19T11:54:43.330Z,88.81
2023-02-19T11:57:36.348Z,88.71
2023-02-19T12:00:19.171Z,89.08
2023-02-19T12:03:24.195Z,88.61
2023-02-19T12:06:23.015Z,88.11
2023-02-19T12:09:15.664Z,87.71
2023-02-19T12:12:04.404Z,87.36
2023-02-19T12:14:50.751Z,86.97
2023-02-19T12:17:33.467Z,87.21
2023-02-19T12:20:10.536Z,86.38
2023-02-19T12:22:58.155Z,86.27
2023-02-19T12:25:29.344Z,86.91
2023-02-19T12:28:15.543Z,87.66
2023-02-19T12:31:01.443Z,87.50
2023-02-19T12:33:28.992Z,87.69
2023-02-19T12:36:31.426Z,86.78
2023-02-19T12:39:17.471Z,86.77
2023-02-19T12:42:00.763Z,86.62
2023-02-19T12:44:44.404Z,87.47
2023-02-19T12:47:24.862Z,87.20
2023-02-19T12:50:23.616Z,87.31
2023-02-19T12:52:59.936Z,86.19
2023-02-19T12:55:34.094Z,86.55
2023-02-19T12:58:05.592Z,86.75
2023-02-19T13:00:44.350Z,86.72
2023-02-19T13:03:22.673Z,86.45
2023-02-19T13:06:00.872Z,86.33
2023-02-19T13:08:42.096Z,86.43
2023-02-19T13:11:22.423Z,86.37
2023-02-19T13:13:56.200Z,86.50
2023-02-19T13:16:25.888Z,86.19
2023-02-19T13:18:58.156Z,86.52
2023-02-19T13:21:29.775Z,86.61
2023-02-19T13:23:57.403Z,87.34
2023-02-19T13:26:44.446Z,87.48
2023-02-19T13:29:54.305Z,87.83
2023-02-19T13:32:29.484Z,85.98
2023-02-19T13:35:39.062Z,85.92
2023-02-19T13:38:11.392Z,86.06
2023-02-19T13:40:58.915Z,85.20
2023-02-19T13:43:33.181Z,84.50
2023-02-19T13:46:06.323Z,83.27
2023-02-19T13:48:39.352Z,81.09
2023-02-19T13:51:13.296Z,79.11
2023-02-19T13:53:41.107Z,78.75
2023-02-19T13:56:30.781Z,78.19
2023-02-19T13:59:21.565Z,76.19
2023-02-19T14:01:54.973Z,76.08
2023-02-19T14:04:40.063Z,76.98
2023-02-19T14:07:07.650Z,77.96
2023-02-19T14:09:38.336Z,78.30
2023-02-19T14:12:09.139Z,77.50
2023-02-19T14:14:40.816Z,77.46
2023-02-19T14:17:08.631Z,76.56
2023-02-19T14:19:42.340Z,76.02
2023-02-19T14:22:49.124Z,75.46
2023-02-19T14:25:28.711Z,76.14
2023-02-19T14:28:24.146Z,75.17
2023-02-19T14:31:07.512Z,75.67
2023-02-19T14:33:43.364Z,76.05
2023-02-19T14:36:32.500Z,77.01
2023-02-19T14:39:02.434Z,77.22
2023-02-19T14:41:33.032Z,77.31
2023-02-19T14:44:02.694Z,77.82
2023-02-19T14:46:48.343Z,78.00
2023-02-19T14:49:24.747Z,78.25
2023-02-19T14:51:59.556Z,78.91
2023-02-19T14:54:43.898Z,79.33
2023-02-19T14:57:22.368Z,80.05
2023-02-19T15:00:02.838Z,80.13
2023-02-19T15:02:32.660Z,80.39
2023-02-19T15:05:00.386Z,80.03
2023-02-19T15:07:31.501Z,80.22
2023-02-19T15:10:04.638Z,79.57
2023-02-19T15:12:49.552Z,79.43
2023-02-19T15:15:22.356Z,78.58
2023-02-19T15:17:51.808Z,79.11
2023-02-19T15:20:22.859Z,78.54
2023-02-19T15:22:52.127Z,78.21
2023-02-19T15:25:22.385Z,78.22
2023-02-19T15:27:50.873Z,78.17
2023-02-19T15:30:24.930Z,78.64
2023-02-19T15:32:58.845Z,79.50
2023-02-19T15:35:28.947Z,79.33
2023-02-19T15:37:57.034Z,77.92
2023-02-19T15:40:31.694Z,78.09
2023-02-19T15:43:00.535Z,77.83
2023-02-19T15:45:50.496Z,76.67
2023-02-19T15:48:27.402Z,77.20
2023-02-19T15:51:01.811Z,77.10
2023-02-19T15:53:33.085Z,77.49
2023-02-19T15:56:23.347Z,77.18
2023-02-19T15:58:55.571Z,77.32
2023-02-19T16:01:28.457Z,77.57
2023-02-19T16:03:56.920Z,75.88
2023-02-19T16:06:26.426Z,76.22
2023-02-19T16:09:07.006Z,76.14
2023-02-19T16:11:40.489Z,76.38
2023-02-19T16:14:26.890Z,76.50
2023-02-19T16:17:21.792Z,76.05
2023-02-19T16:19:56.086Z,75.67
2023-02-19T16:22:32.795Z,75.36
2023-02-19T16:25:06.733Z,75.62
2023-02-19T16:27:40.704Z,75.41
2023-02-19T16:30:10.772Z,74.69
2023-02-19T16:32:38.400Z,75.24
2023-02-19T16:35:26.169Z,75.67
2023-02-19T16:37:59.529Z,75.65
2023-02-19T16:40:45.365Z,76.20
2023-02-19T16:43:12.925Z,76.85
2023-02-19T16:45:47.483Z,77.23
2023-02-19T16:48:15.632Z,77.55
2023-02-19T16:50:43.329Z,77.29
2023-02-19T16:53:22.449Z,77.29
2023-02-19T16:55:50.180Z,77.29
2023-02-19T16:58:18.103Z,76.88
2023-02-19T17:00:45.924Z,76.70
2023-02-19T17:03:19.173Z,76.97
2023-02-19T17:05:47.344Z,76.98
2023-02-19T17:08:29.891Z,76.48
2023-02-19T17:10:58.508Z,76.94
2023-02-19T17:13:26.316Z,77.22
2023-02-19T17:15:53.980Z,77.22
2023-02-19T17:18:21.786Z,76.67
2023-02-19T17:21:01.544Z,76.66
2023-02-19T17:23:29.132Z,76.46
2023-02-19T17:25:56.818Z,76.39
2023-02-19T17:28:24.398Z,75.86
2023-02-19T17:30:52.135Z,75.18
2023-02-19T17:33:19.828Z,75.49
2023-02-19T17:35:48.547Z,75.97
2023-02-19T17:38:16.215Z,75.89
2023-02-19T17:40:43.880Z,75.98
2023-02-19T17:43:11.507Z,76.41
2023-02-19T17:45:39.310Z,76.48
2023-02-19T17:48:06.966Z,76.79
2023-02-19T17:50:34.699Z,77.00
2023-02-19T17:53:02.288Z,77.44
2023-02-19T17:55:29.900Z,77.55
2023-02-19T17:57:57.581Z,77.77
2023-02-19T18:00:29.988Z,77.97
2023-02-19T18:02:58.297Z,78.48
2023-02-19T18:05:25.997Z,78.32
2023-02-19T18:07:53.930Z,78.62
2023-02-19T18:10:22.871Z,79.14
2023-02-19T18:12:51.197Z,79.16
2023-02-19T18:15:22.705Z,79.28
2023-02-19T18:17:50.768Z,79.31
2023-02-19T18:20:21.934Z,79.38
2023-02-19T18:22:51.168Z,79.57
2023-02-19T18:25:20.063Z,79.41
2023-02-19T18:27:48.640Z,79.42
2023-02-19T18:30:18.688Z,79.55
2023-02-19T18:32:48.608Z,79.12
2023-02-19T18:35:18.887Z,79.11
2023-02-19T18:37:51.447Z,79.49
2023-02-19T18:40:21.383Z,79.34
2023-02-19T18:42:49.812Z,78.96
2023-02-19T18:45:17.666Z,78.84
2023-02-19T18:47:49.691Z,78.97
2023-02-19T18:50:19.192Z,78.77
2023-02-19T18:52:47.073Z,78.45
2023-02-19T18:55:15.132Z,78.65
2023-02-19T18:57:43.889Z,78.21
2023-02-19T19:00:17.414Z,77.74
2023-02-19T19:02:49.774Z,77.22
2023-02-19T19:05:20.824Z,76.98
2023-02-19T19:07:55.946Z,76.97
2023-02-19T19:10:28.262Z,77.07
2023-02-19T19:12:55.943Z,77.04
2023-02-19T19:15:24.146Z,77.38
2023-02-19T19:17:51.798Z,77.63
2023-02-19T19:20:21.932Z,77.87
2023-02-19T19:22:53.459Z,77.82
2023-02-19T19:25:22.618Z,78.07
2023-02-19T19:27:54.435Z,77.84
2023-02-19T19:30:22.482Z,78.23
2023-02-19T19:32:52.190Z,78.16
2023-02-19T19:35:20.920Z,78.23
2023-02-19T19:37:49.137Z,78.23
2023-02-19T19:40:18.020Z,78.35
2023-02-19T19:42:46.059Z,78.69
2023-02-19T19:45:14.676Z,78.61
2023-02-19T19:47:42.701Z,78.68
2023-02-19T19:50:10.758Z,78.81
2023-02-19T19:52:38.746Z,79.04
2023-02-19T19:55:07.558Z,79.05
2023-02-19T19:57:35.847Z,79.23
2023-02-19T20:00:04.794Z,79.43
2023-02-19T20:02:32.641Z,79.26
2023-02-19T20:05:02.790Z,79.47
2023-02-19T20:07:30.418Z,79.41
2023-02-19T20:09:58.182Z,79.62
2023-02-19T20:12:25.798Z,79.75
2023-02-19T20:14:53.656Z,79.95
2023-02-19T20:17:21.291Z,80.01
2023-02-19T20:19:48.926Z,80.12
2023-02-19T20:22:17.111Z,80.31
2023-02-19T20:24:44.882Z,80.52
2023-02-19T20:27:12.678Z,80.80
2023-02-19T20:29:40.275Z,80.96
2023-02-19T20:32:07.906Z,81.07
2023-02-19T20:34:35.639Z,81.26
2023-02-19T20:37:04.887Z,81.43
2023-02-19T20:39:34.010Z,81.56
2023-02-19T20:42:02.352Z,81.70
2023-02-19T20:44:30.438Z,81.79
2023-02-19T20:46:59.307Z,81.76
2023-02-19T20:49:30.050Z,81.88
2023-02-19T20:52:04.743Z,81.93
2023-02-19T20:54:34.141Z,82.00
2023-02-19T20:57:04.894Z,81.79
2023-02-19T20:59:33.303Z,81.90
2023-02-19T21:02:03.196Z,81.84
2023-02-19T21:04:30.811Z,81.84
2023-02-19T21:06:59.081Z,82.05
2023-02-19T21:09:26.692Z,82.03
2023-02-19T21:11:54.304Z,82.19
2023-02-19T21:14:22.060Z,82.12
2023-02-19T21:16:49.617Z,82.18
2023-02-19T21:19:17.819Z,82.39
2023-02-19T21:21:45.415Z,82.65
2023-02-19T21:24:14.271Z,82.68
2023-02-19T21:26:43.417Z,82.84
2023-02-19T21:29:16.006Z,82.79
2023-02-19T21:31:45.969Z,83.00
2023-02-19T21:34:16.725Z,83.16
2023-02-19T21:36:44.387Z,83.37
2023-02-19T21:39:15.253Z,83.51
2023-02-19T21:41:43.261Z,83.73
2023-02-19T21:44:11.133Z,83.76
2023-02-19T21:46:38.716Z,83.94
2023-02-19T21:49:06.544Z,83.99
2023-02-19T21:51:37.834Z,84.03
2023-02-19T21:54:07.256Z,84.19
2023-02-19T21:56:36.572Z,84.39
2023-02-19T21:59:04.406Z,84.52
2023-02-19T22:01:35.196Z,84.59
2023-02-19T22:04:02.785Z,84.86
2023-02-19T22:06:31.168Z,85.18
2023-02-19T22:08:59.356Z,85.13
2023-02-19T22:11:27.466Z,85.04
2023-02-19T22:13:55.147Z,85.07
2023-02-19T22:16:22.863Z,85.34
2023-02-19T22:18:53.727Z,85.40
2023-02-19T22:21:22.749Z,85.40
2023-02-19T22:23:51.959Z,85.37
2023-02-19T22:26:23.655Z,85.51
2023-02-19T22:28:51.901Z,85.58
2023-02-19T22:31:22.476Z,85.40
2023-02-19T22:33:50.627Z,85.75
2023-02-19T22:36:21.826Z,85.82
2023-02-19T22:38:50.082Z,85.85
2023-02-19T22:41:18.990Z,86.01
2023-02-19T22:43:47.281Z,86.01
2023-02-19T22:46:18.688Z,85.98
2023-02-19T22:48:46.448Z,86.05
2023-02-19T22:51:19.600Z,85.90
2023-02-19T22:53:49.186Z,85.86
2023-02-19T22:56:18.630Z,86.01
2023-02-19T22:58:46.389Z,85.98
2023-02-19T23:01:15.198Z,85.98
2023-02-19T23:03:54.908Z,86.03
2023-02-19T23:06:33.976Z,85.98
2023-02-19T23:09:05.132Z,85.97
2023-02-19T23:11:35.479Z,85.92
2023-02-19T23:14:03.528Z,85.82
2023-02-19T23:16:31.757Z,86.16
2023-02-19T23:18:59.329Z,86.18
2023-02-19T23:21:26.892Z,86.29
2023-02-19T23:23:54.436Z,86.31
2023-02-19T23:26:22.038Z,86.40
2023-02-19T23:28:49.667Z,86.45
2023-02-19T23:31:17.575Z,86.41
2023-02-19T23:33:45.244Z,86.67
2023-02-19T23:36:14.288Z,86.70
2023-02-19T23:38:46.583Z,86.41
2023-02-19T23:41:16.683Z,86.58
2023-02-19T23:43:44.810Z,86.65
2023-02-19T23:46:17.928Z,86.48
2023-02-19T23:48:45.663Z,86.28
2023-02-19T23:51:13.504Z,86.27
2023-02-19T23:53:41.232Z,86.23
2023-02-19T23:56:09.096Z,86.14
2023-02-19T23:58:37.733Z,86.29
